Time;durP1;ratioP1;P1;durP2;ratioP2;P2;SDS_P1;SDS_P2;PMS_P1;PMS_P2;Temp;Humidity;BMP_temperature;BMP_pressure;BME280_temperature;BME280_humidity;BME280_pressure;Samples;Min_cycle;Max_cycle;Signal;HPM_P1;HPM_P2
2022/12/04 00:02:21;;;;;;;56.47;27.83;;;1.90;80.80;;;;;;5029642;28;20029;-67
2022/12/04 00:04:47;;;;;;;54.00;27.77;;;1.90;80.60;;;;;;5028691;28;20025;-68
2022/12/04 00:07:13;;;;;;;62.65;31.58;;;2.00;80.60;;;;;;5029484;28;20443;-66
2022/12/04 00:09:38;;;;;;;68.63;33.40;;;1.90;80.40;;;;;;5029822;28;20029;-66
2022/12/04 00:12:04;;;;;;;56.13;28.55;;;1.80;80.30;;;;;;5029219;28;20036;-66
2022/12/04 00:14:30;;;;;;;60.30;30.92;;;1.90;80.60;;;;;;5013120;28;20037;-66
2022/12/04 00:16:55;;;;;;;65.30;33.45;;;1.90;80.40;;;;;;5028329;28;20511;-67
2022/12/04 00:19:21;;;;;;;52.13;27.42;;;1.80;80.30;;;;;;5028147;28;20026;-66
2022/12/04 00:21:48;;;;;;;53.60;27.80;;;1.90;80.50;;;;;;5028728;28;20024;-66
2022/12/04 00:24:14;;;;;;;62.47;31.08;;;1.90;80.50;;;;;;5025558;28;20022;-67
2022/12/04 00:26:39;;;;;;;67.13;32.17;;;2.00;80.40;;;;;;5029784;28;20434;-67
2022/12/04 00:29:05;;;;;;;64.30;31.08;;;2.00;80.40;;;;;;5033009;28;20530;-66
2022/12/04 00:31:31;;;;;;;69.72;33.47;;;1.90;80.30;;;;;;5017289;28;20019;-66
2022/12/04 00:33:57;;;;;;;62.85;31.38;;;1.90;80.20;;;;;;5028348;28;20040;-66
2022/12/04 00:36:25;;;;;;;63.42;32.50;;;1.90;80.30;;;;;;5032964;28;20427;-67
2022/12/04 00:38:50;;;;;;;59.38;30.83;;;1.90;80.60;;;;;;5007047;28;20030;-67
2022/12/04 00:41:20;;;;;;;68.20;33.80;;;1.90;80.60;;;;;;5032557;28;20029;-67
2022/12/04 00:43:45;;;;;;;65.95;31.92;;;1.90;80.50;;;;;;5025522;28;20456;-66
2022/12/04 00:46:11;;;;;;;56.95;28.73;;;1.90;80.40;;;;;;5022303;28;20025;-67
2022/12/04 00:48:37;;;;;;;52.20;28.13;;;1.90;80.60;;;;;;5024775;28;20060;-67
2022/12/04 00:51:09;;;;;;;53.38;28.67;;;2.00;80.50;;;;;;5024505;28;20450;-67
2022/12/04 00:53:35;;;;;;;54.20;27.67;;;2.10;80.40;;;;;;5006388;28;20029;-67
2022/12/04 00:56:06;;;;;;;62.10;30.85;;;2.10;80.30;;;;;;5034110;28;20026;-67
2022/12/04 00:58:31;;;;;;;67.03;35.15;;;2.00;80.00;;;;;;5027419;28;20025;-66
2022/12/04 01:01:10;;;;;;;55.53;29.42;;;1.90;80.00;;;;;;5030837;28;20136;-67
2022/12/04 01:03:35;;;;;;;56.08;29.40;;;2.00;80.40;;;;;;5029777;28;20021;-67
2022/12/04 01:06:02;;;;;;;56.38;28.25;;;2.00;80.30;;;;;;5014000;28;20476;-67
2022/12/04 01:08:28;;;;;;;57.53;29.75;;;2.00;80.40;;;;;;5029997;28;20033;-67
2022/12/04 01:10:53;;;;;;;60.30;31.52;;;2.10;80.30;;;;;;5023713;28;20043;-67
2022/12/04 01:13:19;;;;;;;64.45;31.92;;;2.00;80.30;;;;;;5029302;28;20031;-67
2022/12/04 01:15:46;;;;;;;61.47;32.10;;;2.00;80.30;;;;;;5026909;28;20068;-65
2022/12/04 01:18:13;;;;;;;57.08;29.33;;;1.90;80.30;;;;;;5028371;28;20021;-66
2022/12/04 01:20:39;;;;;;;65.80;34.35;;;1.90;80.50;;;;;;5031541;28;20068;-67
2022/12/04 01:23:05;;;;;;;62.65;32.30;;;2.00;80.40;;;;;;5013228;28;20435;-68
2022/12/04 01:25:30;;;;;;;62.90;32.42;;;2.00;80.30;;;;;;5030823;28;20105;-67
2022/12/04 01:27:57;;;;;;;66.63;33.50;;;2.00;80.20;;;;;;5031559;28;20026;-66
2022/12/04 01:30:22;;;;;;;67.38;35.17;;;2.00;80.40;;;;;;5011377;28;20033;-67
2022/12/04 01:32:48;;;;;;;54.92;29.50;;;2.00;80.40;;;;;;5031533;28;20029;-68
2022/12/04 01:35:14;;;;;;;56.53;29.92;;;1.90;80.50;;;;;;5007250;28;20138;-67
2022/12/04 01:37:39;;;;;;;62.45;32.90;;;2.00;80.50;;;;;;5029841;28;20109;-68
2022/12/04 01:40:06;;;;;;;60.72;31.38;;;2.00;80.50;;;;;;5028222;28;20029;-68
2022/12/04 01:42:31;;;;;;;63.58;32.83;;;2.00;80.40;;;;;;5030005;28;20510;-67
2022/12/04 01:45:42;;;;;;;59.85;31.83;;;2.00;80.40;;;;;;5024455;28;20026;-67
2022/12/04 01:48:26;;;;;;;63.40;32.45;;;2.00;80.50;;;;;;5024343;28;20061;-67
2022/12/04 01:50:57;;;;;;;65.40;33.35;;;2.00;80.40;;;;;;5026191;28;20108;-68
2022/12/04 01:53:23;;;;;;;56.92;29.98;;;2.00;80.40;;;;;;5030217;28;20483;-67
2022/12/04 01:55:49;;;;;;;51.78;26.10;;;2.00;80.50;;;;;;5029767;28;20079;-66
2022/12/04 01:58:20;;;;;;;73.70;36.17;;;2.00;80.50;;;;;;5030488;28;20072;-67
2022/12/04 02:00:51;;;;;;;56.25;29.58;;;2.00;80.30;;;;;;5009863;28;20026;-68
2022/12/04 02:03:16;;;;;;;63.38;32.20;;;2.00;80.40;;;;;;5028911;28;20392;-68
2022/12/04 02:05:42;;;;;;;57.47;29.90;;;2.00;80.40;;;;;;5030240;28;20029;-67
2022/12/04 02:08:09;;;;;;;56.58;29.50;;;2.10;80.60;;;;;;5031348;28;20419;-67
2022/12/04 02:11:01;;;;;;;54.42;28.98;;;2.10;80.40;;;;;;5029741;28;20030;-68
2022/12/04 02:13:48;;;;;;;61.93;31.40;;;2.10;80.30;;;;;;5027360;28;20025;-67
2022/12/04 02:16:28;;;;;;;66.88;32.83;;;2.00;80.10;;;;;;5030564;28;20341;-67
2022/12/04 02:19:19;;;;;;;61.92;33.20;;;2.00;80.40;;;;;;5030701;28;20373;-67
2022/12/04 02:21:48;;;;;;;65.05;32.33;;;1.90;80.60;;;;;;5007756;28;20663;-68
2022/12/04 02:24:36;;;;;;;58.72;28.63;;;2.00;80.80;;;;;;5024158;28;20092;-67
2022/12/04 02:27:26;;;;;;;50.90;26.63;;;2.00;80.80;;;;;;5031314;28;20476;-67
2022/12/04 02:30:05;;;;;;;56.97;29.23;;;2.10;80.70;;;;;;4979936;28;20400;-66
2022/12/04 02:32:45;;;;;;;64.95;32.75;;;2.20;80.50;;;;;;5030382;28;20434;-67
2022/12/04 02:35:27;;;;;;;60.40;32.35;;;2.10;80.20;;;;;;5028416;28;20034;-67
2022/12/04 02:38:01;;;;;;;62.40;32.38;;;2.10;80.30;;;;;;5030353;28;20028;-67
2022/12/04 02:40:37;;;;;;;59.60;29.90;;;2.10;80.40;;;;;;5022015;28;20029;-68
2022/12/04 02:43:16;;;;;;;47.42;24.52;;;2.10;80.50;;;;;;5029221;28;20036;-66
2022/12/04 02:45:58;;;;;;;54.72;28.63;;;2.20;80.50;;;;;;5029307;28;20026;-67
2022/12/04 02:48:25;;;;;;;62.67;32.30;;;2.20;80.30;;;;;;5025365;28;20029;-66
2022/12/04 02:50:53;;;;;;;60.30;30.52;;;2.20;80.30;;;;;;5030255;28;20029;-66
2022/12/04 02:53:25;;;;;;;55.85;29.75;;;2.20;80.40;;;;;;5027058;28;20021;-66
2022/12/04 02:55:56;;;;;;;57.38;29.77;;;2.20;80.40;;;;;;5030253;28;20036;-66
2022/12/04 02:58:35;;;;;;;66.03;34.75;;;2.20;80.30;;;;;;5027245;28;20029;-67
2022/12/04 03:01:16;;;;;;;57.95;29.58;;;2.10;80.20;;;;;;5011453;28;20515;-65
2022/12/04 03:03:43;;;;;;;53.05;28.05;;;2.10;80.50;;;;;;5028385;28;20175;-65
2022/12/04 03:06:12;;;;;;;49.70;26.10;;;2.20;80.40;;;;;;5030155;28;20029;-65
2022/12/04 03:08:48;;;;;;;42.70;23.42;;;2.30;80.40;;;;;;5029371;28;20021;-66
2022/12/04 03:11:14;;;;;;;62.78;33.13;;;2.30;80.30;;;;;;5029890;28;20250;-66
2022/12/04 03:13:52;;;;;;;63.38;33.65;;;2.20;80.00;;;;;;5029010;28;20030;-66
2022/12/04 03:16:39;;;;;;;54.50;27.92;;;2.20;80.20;;;;;;5030041;28;20059;-67
2022/12/04 03:19:24;;;;;;;67.95;34.85;;;2.20;80.40;;;;;;5029406;28;20033;-67
2022/12/04 03:21:58;;;;;;;63.58;33.38;;;2.10;80.20;;;;;;5029026;28;20029;-67
2022/12/04 03:24:29;;;;;;;51.22;28.02;;;2.00;80.40;;;;;;5029679;28;20449;-67
2022/12/04 03:27:13;;;;;;;62.58;32.65;;;2.00;80.70;;;;;;5030266;28;20083;-67
2022/12/04 03:30:01;;;;;;;48.63;27.02;;;2.10;80.80;;;;;;5029333;28;20079;-67
2022/12/04 03:32:38;;;;;;;54.30;29.50;;;2.10;80.80;;;;;;5010497;28;20033;-67
2022/12/04 03:35:28;;;;;;;60.10;32.95;;;2.20;80.60;;;;;;5024630;28;20087;-66
2022/12/04 03:38:26;;;;;;;53.65;27.70;;;2.10;80.50;;;;;;5007150;28;20025;-67
2022/12/04 03:41:17;;;;;;;55.95;29.27;;;2.10;80.60;;;;;;5024553;28;20029;-67
2022/12/04 03:43:54;;;;;;;56.83;29.48;;;2.10;80.60;;;;;;5026205;28;20083;-66
2022/12/04 03:46:37;;;;;;;58.90;30.98;;;2.20;80.60;;;;;;5024884;28;20104;-66
2022/12/04 03:49:18;;;;;;;64.80;33.33;;;2.20;80.60;;;;;;5029585;28;20030;-66
2022/12/04 03:52:03;;;;;;;56.10;28.55;;;2.20;80.70;;;;;;5002303;28;20026;-66
2022/12/04 03:54:42;;;;;;;61.78;31.60;;;2.20;80.70;;;;;;5021824;28;20022;-66
2022/12/04 03:57:12;;;;;;;74.45;36.15;;;2.20;80.60;;;;;;5028951;28;20026;-66
2022/12/04 03:59:47;;;;;;;61.85;32.53;;;2.10;80.60;;;;;;5029662;28;20021;-66
2022/12/04 04:02:17;;;;;;;52.53;27.60;;;2.00;80.80;;;;;;5031092;28;20104;-67
2022/12/04 04:04:50;;;;;;;57.55;29.88;;;2.10;81.00;;;;;;5031416;28;20032;-66
2022/12/04 04:07:34;;;;;;;58.58;30.92;;;2.10;80.90;;;;;;5033144;28;20487;-65
2022/12/04 04:10:06;;;;;;;73.53;35.72;;;2.20;81.00;;;;;;5032840;28;20032;-65
2022/12/04 04:12:38;;;;;;;69.97;34.67;;;2.10;80.70;;;;;;5014751;28;20026;-66
2022/12/04 04:26:37;;;;;;;57.75;29.27;;;1.90;81.50;;;;;;5025800;28;20277;-65
2022/12/04 04:29:03;;;;;;;53.08;27.90;;;1.90;81.60;;;;;;5033096;28;20045;-65
2022/12/04 04:31:35;;;;;;;63.22;32.63;;;2.00;81.70;;;;;;5032634;28;20017;-65
2022/12/04 04:34:08;;;;;;;65.60;33.78;;;2.00;81.60;;;;;;5028025;28;20484;-65
2022/12/04 04:37:11;;;;;;;62.10;33.60;;;2.00;81.70;;;;;;5031810;28;20018;-65
2022/12/04 04:39:47;;;;;;;54.63;28.67;;;1.90;81.70;;;;;;5025958;28;20108;-65
2022/12/04 04:42:27;;;;;;;63.08;32.85;;;2.00;81.90;;;;;;5032704;28;20060;-65
2022/12/04 04:45:07;;;;;;;70.18;35.90;;;2.00;81.70;;;;;;5029504;28;20036;-65
2022/12/04 04:47:38;;;;;;;65.15;34.13;;;2.00;81.50;;;;;;5029486;28;20383;-66
2022/12/04 04:50:07;;;;;;;57.53;30.65;;;2.00;81.70;;;;;;5029500;28;20041;-66
2022/12/04 04:52:35;;;;;;;57.05;28.95;;;2.00;81.70;;;;;;5028836;28;20025;-66
2022/12/04 04:55:02;;;;;;;49.70;27.45;;;2.10;81.70;;;;;;5032051;28;20041;-66
2022/12/04 04:57:36;;;;;;;53.83;27.73;;;2.10;81.60;;;;;;5031183;28;20025;-66
2022/12/04 05:00:09;;;;;;;59.78;31.55;;;2.10;81.30;;;;;;5031705;28;20033;-66
2022/12/04 05:02:35;;;;;;;65.57;34.08;;;2.10;81.20;;;;;;5025737;28;20060;-66
2022/12/04 05:05:00;;;;;;;58.95;31.60;;;2.00;81.30;;;;;;5032168;28;20504;-67
2022/12/04 05:07:26;;;;;;;58.70;30.77;;;2.00;81.50;;;;;;5014058;28;20028;-67
2022/12/04 05:09:51;;;;;;;66.50;34.40;;;2.00;81.40;;;;;;5032657;28;20053;-67
2022/12/04 05:12:17;;;;;;;64.45;33.67;;;2.00;81.30;;;;;;5031594;28;20036;-67
2022/12/04 05:14:42;;;;;;;63.95;32.63;;;1.90;81.50;;;;;;5029858;28;20471;-67
2022/12/04 05:17:08;;;;;;;61.97;32.45;;;1.80;81.80;;;;;;5031407;28;20032;-66
2022/12/04 05:19:52;;;;;;;62.47;33.22;;;1.90;81.80;;;;;;5032177;28;20033;-66
2022/12/04 05:22:28;;;;;;;54.83;30.00;;;1.80;81.70;;;;;;5013949;28;20384;-66
2022/12/04 05:24:54;;;;;;;58.10;30.70;;;1.80;82.20;;;;;;5030752;28;20053;-66
2022/12/04 05:27:21;;;;;;;58.33;30.13;;;1.80;82.20;;;;;;5031342;28;20148;-65
2022/12/04 05:29:47;;;;;;;62.97;32.60;;;1.90;82.20;;;;;;5030679;28;20029;-65
2022/12/04 05:32:12;;;;;;;59.92;31.08;;;1.80;81.90;;;;;;5030036;28;20026;-66
2022/12/04 05:34:38;;;;;;;52.13;27.85;;;1.80;82.10;;;;;;5031709;28;20096;-65
2022/12/04 05:37:04;;;;;;;53.83;28.95;;;1.90;82.20;;;;;;5031901;28;20029;-66
2022/12/04 05:39:29;;;;;;;58.45;31.27;;;1.90;82.10;;;;;;5031840;28;20025;-66
2022/12/04 05:41:55;;;;;;;59.58;31.17;;;1.90;82.00;;;;;;5031671;28;20029;-65
2022/12/04 05:44:21;;;;;;;59.45;31.42;;;1.80;82.00;;;;;;5031360;28;20029;-65
2022/12/04 05:46:47;;;;;;;66.60;34.00;;;1.80;82.20;;;;;;5031391;28;20049;-65
2022/12/04 05:49:13;;;;;;;68.65;35.42;;;1.90;82.10;;;;;;5031214;28;20024;-65
2022/12/04 05:51:38;;;;;;;56.00;30.42;;;1.80;82.10;;;;;;5031004;28;20480;-65
2022/12/04 05:54:04;;;;;;;50.30;26.23;;;1.80;82.40;;;;;;5009073;28;20087;-65
2022/12/04 05:56:29;;;;;;;48.47;24.88;;;1.90;82.40;;;;;;5034738;28;20024;-66
2022/12/04 05:58:55;;;;;;;54.30;29.13;;;2.10;82.10;;;;;;5013059;28;20071;-65
2022/12/04 06:01:23;;;;;;;53.00;28.33;;;2.00;81.80;;;;;;5025580;28;20033;-65
2022/12/04 06:03:49;;;;;;;56.22;29.35;;;2.00;81.90;;;;;;5030465;28;20076;-65
2022/12/04 06:06:16;;;;;;;57.67;30.15;;;2.10;82.50;;;;;;5031382;28;20438;-65
2022/12/04 06:08:42;;;;;;;60.85;31.38;;;2.00;81.80;;;;;;5030641;28;20021;-66
2022/12/04 06:11:17;;;;;;;52.78;28.15;;;1.90;82.00;;;;;;5030609;28;20032;-66
2022/12/04 06:13:44;;;;;;;45.00;23.67;;;2.00;82.20;;;;;;5031487;28;20508;-66
2022/12/04 06:16:19;;;;;;;60.50;31.00;;;2.00;82.00;;;;;;5012780;28;20036;-65
2022/12/04 06:18:49;;;;;;;50.30;26.65;;;2.10;82.00;;;;;;5011521;28;20029;-65
2022/12/04 06:21:15;;;;;;;63.33;31.45;;;2.10;81.90;;;;;;5029751;28;20068;-66
2022/12/04 06:23:40;;;;;;;48.75;25.00;;;2.00;81.70;;;;;;5028718;28;20109;-66
2022/12/04 06:26:07;;;;;;;52.38;26.40;;;2.00;81.90;;;;;;5029532;28;20032;-67
2022/12/04 06:28:34;;;;;;;66.45;32.53;;;2.10;82.00;;;;;;5030171;28;20026;-66
2022/12/04 06:31:05;;;;;;;55.95;29.02;;;2.00;81.80;;;;;;5014579;28;20435;-66
2022/12/04 06:33:30;;;;;;;51.95;27.17;;;2.00;82.00;;;;;;5027486;28;20021;-66
2022/12/04 06:36:01;;;;;;;43.90;23.42;;;2.00;82.20;;;;;;5029694;28;20510;-66
2022/12/04 06:38:28;;;;;;;52.30;28.00;;;2.10;82.00;;;;;;5030599;28;20026;-66
2022/12/04 06:40:54;;;;;;;47.97;25.83;;;2.10;82.00;;;;;;5030530;28;20036;-66
2022/12/04 06:43:19;;;;;;;56.83;30.13;;;2.10;81.90;;;;;;5019486;28;20029;-66
2022/12/04 06:45:45;;;;;;;55.40;28.40;;;2.00;81.60;;;;;;5018686;28;20021;-66
2022/12/04 06:48:10;;;;;;;54.95;28.75;;;2.10;81.80;;;;;;5010900;28;20021;-66
2022/12/04 06:50:36;;;;;;;53.83;27.35;;;2.10;81.80;;;;;;5030880;28;20080;-66
2022/12/04 06:53:01;;;;;;;60.83;30.80;;;2.10;81.80;;;;;;5029745;28;20034;-66
2022/12/04 06:55:27;;;;;;;47.13;25.60;;;2.00;81.70;;;;;;5029456;28;20075;-65
2022/12/04 06:57:52;;;;;;;46.78;25.02;;;2.10;82.00;;;;;;5029947;28;20034;-66
2022/12/04 07:00:18;;;;;;;55.00;28.33;;;2.20;81.90;;;;;;5030530;28;20032;-66
2022/12/04 07:02:44;;;;;;;56.83;29.65;;;2.20;81.60;;;;;;5030828;28;20035;-66
2022/12/04 07:05:09;;;;;;;58.33;30.88;;;2.20;81.60;;;;;;5030579;28;20421;-66
2022/12/04 07:07:35;;;;;;;53.88;28.50;;;2.10;81.60;;;;;;5030651;28;20036;-66
2022/12/04 07:10:02;;;;;;;55.78;29.10;;;2.10;81.70;;;;;;5030534;28;20111;-66
2022/12/04 07:12:27;;;;;;;51.42;27.35;;;2.10;81.80;;;;;;5030395;28;20075;-66
2022/12/04 07:14:53;;;;;;;55.88;29.00;;;2.10;81.90;;;;;;5030330;28;20025;-66
2022/12/04 07:17:18;;;;;;;53.58;28.98;;;2.10;81.90;;;;;;5030500;28;20549;-66
2022/12/04 07:19:44;;;;;;;58.70;30.25;;;2.20;81.90;;;;;;5030562;28;20041;-66
2022/12/04 07:22:09;;;;;;;51.20;27.27;;;2.20;81.70;;;;;;5030142;28;20018;-65
2022/12/04 07:24:36;;;;;;;48.97;25.70;;;2.20;81.70;;;;;;5030349;28;20033;-66
2022/12/04 07:27:02;;;;;;;45.40;24.88;;;2.10;81.70;;;;;;5027271;28;20043;-66
2022/12/04 07:29:28;;;;;;;51.03;26.02;;;2.20;81.70;;;;;;5015849;28;20021;-66
2022/12/04 07:31:53;;;;;;;48.83;24.50;;;2.20;81.60;;;;;;5028797;28;20104;-67
2022/12/04 07:34:19;;;;;;;51.13;26.55;;;2.30;81.60;;;;;;5029106;28;20522;-66
2022/12/04 07:36:44;;;;;;;57.00;29.70;;;2.20;81.50;;;;;;5029602;28;20036;-66
2022/12/04 07:39:10;;;;;;;53.70;27.85;;;2.20;81.40;;;;;;5028559;28;20621;-66
2022/12/04 07:41:36;;;;;;;49.17;26.95;;;2.10;81.60;;;;;;5030607;28;20013;-66
2022/12/04 07:44:01;;;;;;;56.10;29.05;;;2.20;81.80;;;;;;5030972;28;20034;-66
2022/12/04 07:46:27;;;;;;;59.05;28.92;;;2.10;81.80;;;;;;5023522;28;20041;-66
2022/12/04 07:48:57;;;;;;;56.97;28.77;;;2.10;82.00;;;;;;5026213;28;20060;-66
2022/12/04 07:51:25;;;;;;;49.70;26.00;;;2.10;82.10;;;;;;5030094;28;20109;-65
2022/12/04 07:53:56;;;;;;;52.78;27.77;;;2.10;82.10;;;;;;5029885;28;20503;-65
2022/12/04 07:56:22;;;;;;;57.50;29.67;;;2.10;82.20;;;;;;5028112;28;20037;-65
2022/12/04 07:58:47;;;;;;;55.13;28.15;;;2.10;82.00;;;;;;5027715;28;20439;-66
2022/12/04 08:01:18;;;;;;;50.22;26.45;;;2.00;82.20;;;;;;5031983;28;20040;-65
2022/12/04 08:03:45;;;;;;;53.33;28.83;;;2.00;82.40;;;;;;5023472;28;20021;-66
2022/12/04 08:06:11;;;;;;;52.20;27.52;;;2.00;82.50;;;;;;5029158;28;20022;-66
2022/12/04 08:08:37;;;;;;;56.22;29.08;;;2.00;82.60;;;;;;5020590;28;20442;-66
2022/12/04 08:11:08;;;;;;;53.92;27.38;;;2.00;83.50;;;;;;5028926;28;20113;-66
2022/12/04 08:13:34;;;;;;;46.83;24.08;;;2.00;82.90;;;;;;5029440;28;20048;-66
2022/12/04 08:16:01;;;;;;;57.13;30.20;;;2.10;82.80;;;;;;5029602;28;20159;-66
2022/12/04 08:18:27;;;;;;;51.70;26.75;;;2.10;82.80;;;;;;5020326;28;20025;-65
2022/12/04 08:20:52;;;;;;;47.38;24.52;;;2.10;82.80;;;;;;5028592;28;20391;-66
2022/12/04 08:23:18;;;;;;;53.13;27.08;;;2.10;82.80;;;;;;5028803;28;20041;-67
2022/12/04 08:25:43;;;;;;;60.58;31.00;;;2.10;82.70;;;;;;5028482;28;20638;-67
2022/12/04 08:28:10;;;;;;;60.05;28.42;;;2.10;82.60;;;;;;5028412;28;20026;-67
2022/12/04 08:30:36;;;;;;;54.97;27.88;;;2.00;82.80;;;;;;5029749;28;20028;-67
2022/12/04 08:33:01;;;;;;;51.95;27.63;;;1.90;83.10;;;;;;5029658;28;20021;-67
2022/12/04 08:35:27;;;;;;;53.05;26.65;;;1.90;83.30;;;;;;5029269;28;20079;-66
2022/12/04 08:37:53;;;;;;;50.72;25.63;;;1.90;83.40;;;;;;5027807;28;20029;-66
2022/12/04 08:40:18;;;;;;;54.05;28.23;;;1.90;83.50;;;;;;5029046;28;20369;-66
2022/12/04 08:42:44;;;;;;;52.08;27.73;;;2.00;83.60;;;;;;5015465;28;20036;-67
2022/12/04 08:45:10;;;;;;;49.00;24.92;;;1.90;83.70;;;;;;5009348;28;20025;-67
2022/12/04 08:47:35;;;;;;;51.33;27.20;;;2.00;83.70;;;;;;5013241;28;20033;-67
2022/12/04 08:50:01;;;;;;;49.20;25.65;;;2.00;83.70;;;;;;5036215;28;20034;-67
2022/12/04 08:52:26;;;;;;;47.13;25.63;;;2.00;83.70;;;;;;5032714;28;20048;-67
2022/12/04 08:54:52;;;;;;;49.13;25.92;;;2.10;83.60;;;;;;5033147;28;20091;-67
2022/12/04 08:57:17;;;;;;;54.92;28.25;;;2.00;84.20;;;;;;5032098;28;20033;-67
2022/12/04 08:59:43;;;;;;;53.65;27.20;;;2.00;83.60;;;;;;5032888;28;20041;-67
2022/12/04 09:02:10;;;;;;;51.17;26.70;;;2.00;83.60;;;;;;5031616;28;20022;-67
2022/12/04 09:04:35;;;;;;;51.30;26.88;;;2.00;83.60;;;;;;5032855;28;20021;-67
2022/12/04 09:07:01;;;;;;;50.75;25.25;;;1.90;83.70;;;;;;5033143;28;20022;-67
2022/12/04 09:09:26;;;;;;;46.42;23.23;;;1.90;83.90;;;;;;5031920;28;20101;-67
2022/12/04 09:11:52;;;;;;;47.00;23.63;;;2.00;84.00;;;;;;5028914;28;20127;-67
2022/12/04 09:14:24;;;;;;;49.17;25.77;;;2.10;83.80;;;;;;5030318;28;20022;-67
2022/12/04 09:16:50;;;;;;;49.63;25.63;;;2.20;83.60;;;;;;5031111;28;20551;-67
2022/12/04 09:19:16;;;;;;;49.65;25.10;;;2.10;83.30;;;;;;5028691;28;20029;-67
2022/12/04 09:21:42;;;;;;;51.58;26.65;;;2.10;83.20;;;;;;5016585;28;20071;-67
2022/12/04 09:24:07;;;;;;;41.45;22.95;;;2.10;83.20;;;;;;5031351;28;20471;-67
2022/12/04 09:26:33;;;;;;;49.65;25.35;;;2.10;83.40;;;;;;5030450;28;20111;-67
2022/12/04 09:29:00;;;;;;;45.15;23.98;;;2.10;83.30;;;;;;5017833;28;20079;-67
2022/12/04 09:31:26;;;;;;;47.95;25.40;;;2.00;83.10;;;;;;5011134;28;20064;-67
2022/12/04 09:33:52;;;;;;;43.67;23.30;;;2.00;83.30;;;;;;5031755;28;20113;-68
2022/12/04 09:36:18;;;;;;;43.53;22.48;;;2.00;83.40;;;;;;5031668;28;20071;-66
2022/12/04 09:38:46;;;;;;;37.47;19.13;;;2.00;83.30;;;;;;5030652;28;20040;-67
2022/12/04 09:41:31;;;;;;;42.35;23.42;;;2.10;83.40;;;;;;5027654;28;20488;-67
2022/12/04 09:44:40;;;;;;;43.45;23.30;;;2.20;83.00;;;;;;5030985;28;20120;-66
2022/12/04 09:47:20;;;;;;;42.00;21.88;;;2.00;82.60;;;;;;4960672;28;20086;-66
2022/12/04 09:50:20;;;;;;;40.10;21.15;;;2.00;82.90;;;;;;5011402;28;20457;-67
2022/12/04 09:52:57;;;;;;;40.65;21.63;;;1.90;83.20;;;;;;5027358;28;20109;-67
2022/12/04 09:55:31;;;;;;;36.97;19.08;;;2.00;83.30;;;;;;5030934;28;20040;-66
2022/12/04 09:58:00;;;;;;;34.83;19.17;;;2.00;83.30;;;;;;5029252;28;20104;-66
2022/12/04 10:00:28;;;;;;;34.95;19.08;;;2.00;83.10;;;;;;5034886;28;20048;-67
2022/12/04 10:03:02;;;;;;;33.60;17.75;;;2.10;83.00;;;;;;5029737;28;20076;-66
2022/12/04 10:05:30;;;;;;;32.65;18.25;;;2.00;82.90;;;;;;5031870;28;20048;-66
2022/12/04 10:08:18;;;;;;;32.55;18.63;;;2.00;82.80;;;;;;5028722;28;20436;-66
2022/12/04 10:10:59;;;;;;;30.13;16.65;;;2.00;82.70;;;;;;5027641;28;20523;-66
2022/12/04 10:13:43;;;;;;;37.45;18.52;;;2.10;82.90;;;;;;5028950;28;20036;-66
2022/12/04 10:16:36;;;;;;;33.28;17.80;;;2.10;82.70;;;;;;5008304;28;20029;-67
2022/12/04 10:19:43;;;;;;;33.85;17.95;;;2.20;82.70;;;;;;5027729;28;20037;-66
2022/12/04 10:22:28;;;;;;;32.25;17.85;;;2.10;82.50;;;;;;5008367;28;20033;-65
2022/12/04 10:25:01;;;;;;;30.15;17.10;;;2.10;82.40;;;;;;5026103;28;20103;-65
2022/12/04 10:27:39;;;;;;;29.23;16.40;;;2.00;82.40;;;;;;5015220;28;20025;-66
2022/12/04 10:30:21;;;;;;;29.58;16.23;;;2.10;82.60;;;;;;5029472;28;20081;-66
2022/12/04 10:32:51;;;;;;;29.48;16.30;;;2.00;82.30;;;;;;5029340;28;20026;-66
2022/12/04 10:35:23;;;;;;;29.65;17.55;;;2.00;82.50;;;;;;5014208;28;20097;-66
2022/12/04 10:37:57;;;;;;;28.55;16.48;;;2.10;82.60;;;;;;5012113;28;20034;-66
2022/12/04 10:40:52;;;;;;;27.95;15.77;;;2.00;82.50;;;;;;5027756;28;20029;-66
2022/12/04 10:43:42;;;;;;;27.17;16.23;;;2.00;83.30;;;;;;5010618;28;20048;-66
2022/12/04 10:46:21;;;;;;;27.40;16.17;;;2.10;82.60;;;;;;5027875;28;20494;-66
2022/12/04 10:48:50;;;;;;;28.60;15.55;;;2.10;82.60;;;;;;5027707;28;20215;-66
2022/12/04 10:51:20;;;;;;;30.75;17.17;;;2.10;82.60;;;;;;5028263;28;20571;-66
2022/12/04 10:53:48;;;;;;;28.63;16.38;;;2.20;82.60;;;;;;5027581;28;20029;-66
2022/12/04 10:56:19;;;;;;;31.20;16.75;;;2.20;82.60;;;;;;5031091;28;20018;-66
2022/12/04 10:59:04;;;;;;;25.90;15.15;;;2.20;82.30;;;;;;5029056;28;20104;-65
2022/12/04 11:01:31;;;;;;;24.67;14.65;;;2.20;82.40;;;;;;5026431;28;20022;-65
2022/12/04 11:04:17;;;;;;;26.52;15.65;;;2.30;82.30;;;;;;5028491;28;20115;-66
2022/12/04 11:06:43;;;;;;;27.38;16.38;;;2.30;82.20;;;;;;5022894;28;20043;-66
2022/12/04 11:09:22;;;;;;;24.30;14.77;;;2.30;81.80;;;;;;5029825;28;20018;-65
2022/12/04 11:11:49;;;;;;;27.90;15.93;;;2.40;82.00;;;;;;5031006;28;20736;-66
2022/12/04 11:14:17;;;;;;;23.38;14.13;;;2.30;81.90;;;;;;5028169;28;20022;-66
2022/12/04 11:16:47;;;;;;;26.98;15.45;;;2.40;82.00;;;;;;5029620;28;20025;-66
2022/12/04 11:19:24;;;;;;;24.60;15.10;;;2.40;82.00;;;;;;5028552;28;20547;-66
2022/12/04 11:21:52;;;;;;;22.65;13.95;;;2.40;81.90;;;;;;5028387;28;20044;-66
2022/12/04 11:24:37;;;;;;;23.27;13.77;;;2.40;81.90;;;;;;5028681;28;20017;-67
2022/12/04 11:27:04;;;;;;;24.02;14.93;;;2.60;81.90;;;;;;5028589;28;20030;-66
2022/12/04 11:29:40;;;;;;;26.75;17.02;;;2.50;81.50;;;;;;5026352;28;20117;-67
2022/12/04 11:32:16;;;;;;;25.63;16.13;;;2.50;81.20;;;;;;5027368;28;20030;-67
2022/12/04 11:34:44;;;;;;;28.25;16.17;;;2.40;81.30;;;;;;5027152;28;20017;-67
2022/12/04 11:37:21;;;;;;;25.92;15.18;;;2.30;81.70;;;;;;5028306;28;20021;-67
2022/12/04 11:39:47;;;;;;;26.85;16.38;;;2.40;81.90;;;;;;5025531;28;20028;-67
2022/12/04 11:42:23;;;;;;;23.25;14.27;;;2.40;81.70;;;;;;5027015;28;20026;-67
2022/12/04 11:45:19;;;;;;;24.05;15.57;;;2.40;81.80;;;;;;5028582;28;20041;-65
2022/12/04 11:48:01;;;;;;;26.02;16.40;;;2.40;81.70;;;;;;5016895;28;20037;-65
2022/12/04 11:50:44;;;;;;;24.85;14.63;;;2.50;81.80;;;;;;5026738;28;20033;-66
2022/12/04 11:53:36;;;;;;;25.33;15.73;;;2.50;81.70;;;;;;5027054;28;20030;-66
2022/12/04 11:56:23;;;;;;;27.85;16.35;;;2.50;81.70;;;;;;5027377;28;20025;-66
2022/12/04 11:59:21;;;;;;;25.52;15.50;;;2.50;81.60;;;;;;5027717;28;20048;-66
2022/12/04 12:01:59;;;;;;;24.90;15.32;;;2.60;81.60;;;;;;5028269;28;20067;-66
2022/12/04 12:04:40;;;;;;;24.50;15.48;;;2.50;81.60;;;;;;5028121;28;20371;-66
2022/12/04 12:07:22;;;;;;;27.98;16.27;;;2.50;81.60;;;;;;5029168;28;20038;-66
2022/12/04 12:10:32;;;;;;;24.97;15.40;;;2.50;81.60;;;;;;5024644;28;20025;-66
2022/12/04 12:13:07;;;;;;;22.98;14.20;;;2.50;81.70;;;;;;5014769;28;20047;-66
2022/12/04 12:15:57;;;;;;;26.75;15.70;;;2.50;82.00;;;;;;5030302;28;20113;-66
2022/12/04 12:18:47;;;;;;;26.38;16.17;;;2.50;82.00;;;;;;5028408;28;20025;-66
2022/12/04 12:21:36;;;;;;;26.10;15.70;;;2.50;82.00;;;;;;5028994;28;20051;-66
2022/12/04 12:24:07;;;;;;;24.35;16.05;;;2.50;82.00;;;;;;5030512;28;20379;-66
2022/12/04 12:27:04;;;;;;;27.70;16.83;;;2.50;82.00;;;;;;5030217;28;20100;-66
2022/12/04 12:29:42;;;;;;;23.00;15.07;;;2.50;82.20;;;;;;5031853;28;20028;-66
2022/12/04 12:32:18;;;;;;;22.83;15.05;;;2.60;82.20;;;;;;5033054;28;20009;-66
2022/12/04 12:34:46;;;;;;;23.15;13.70;;;2.70;82.00;;;;;;5025563;28;20033;-66
2022/12/04 12:37:27;;;;;;;26.20;16.55;;;2.70;81.90;;;;;;5028688;28;20029;-67
2022/12/04 12:40:06;;;;;;;22.17;13.38;;;2.70;81.80;;;;;;5032133;28;20116;-66
2022/12/04 12:42:39;;;;;;;23.05;14.25;;;2.80;81.90;;;;;;5031048;28;20025;-65
2022/12/04 12:45:39;;;;;;;22.65;13.98;;;2.90;81.60;;;;;;5027208;28;20021;-65
2022/12/04 12:48:33;;;;;;;22.83;14.75;;;2.80;81.60;;;;;;5022798;28;20049;-65
2022/12/04 12:51:20;;;;;;;22.77;14.35;;;2.80;81.40;;;;;;5024805;28;20033;-65
2022/12/04 12:53:50;;;;;;;23.77;14.80;;;2.90;81.60;;;;;;5032733;28;20708;-66
2022/12/04 12:56:20;;;;;;;25.70;15.45;;;2.80;81.40;;;;;;5025920;28;22301;-65
2022/12/04 12:58:54;;;;;;;25.15;15.35;;;2.80;81.40;;;;;;5031297;28;20051;-65
2022/12/04 13:01:38;;;;;;;23.35;14.60;;;2.70;81.50;;;;;;5031575;28;20029;-65
2022/12/04 13:04:34;;;;;;;22.25;13.88;;;2.80;81.70;;;;;;5028972;28;20025;-65
2022/12/04 13:07:16;;;;;;;20.52;12.85;;;2.80;81.70;;;;;;5033345;28;20103;-65
2022/12/04 13:10:03;;;;;;;;;;;2.90;81.70;;;;;;5031056;28;20051;-66
2022/12/04 13:12:32;;;;;;;23.83;13.85;;;2.90;81.50;;;;;;4976847;28;19913;-65
2022/12/04 13:14:58;;;;;;;22.25;14.40;;;2.90;81.20;;;;;;5028760;28;20033;-65
2022/12/04 13:17:34;;;;;;;24.10;14.85;;;2.90;81.30;;;;;;5029916;28;20033;-65